sensor_id;sensor_type;location;lat;lon;timestamp;temperature;humidity
27226;DHT22;14732;51.074;3.788;2023-10-19T00:00:54;17.90;99.90
27226;DHT22;14732;51.074;3.788;2023-10-19T00:03:21;17.90;99.90
27226;DHT22;14732;51.074;3.788;2023-10-19T00:05:49;17.80;99.90
27226;DHT22;14732;51.074;3.788;2023-10-19T00:08:14;17.80;99.90
27226;DHT22;14732;51.074;3.788;2023-10-19T00:10:44;17.60;99.90
27226;DHT22;14732;51.074;3.788;2023-10-19T00:13:14;17.50;99.90
27226;DHT22;14732;51.074;3.788;2023-10-19T00:15:42;17.70;99.90
27226;DHT22;14732;51.074;3.788;2023-10-19T00:18:17;17.90;99.90
27226;DHT22;14732;51.074;3.788;2023-10-19T00:20:44;18.00;99.90
27226;DHT22;14732;51.074;3.788;2023-10-19T00:23:25;17.80;99.90
27226;DHT22;14732;51.074;3.788;2023-10-19T00:26:02;17.80;99.90
27226;DHT22;14732;51.074;3.788;2023-10-19T00:28:35;17.80;99.90
27226;DHT22;14732;51.074;3.788;2023-10-19T00:31:02;17.80;99.90
27226;DHT22;14732;51.074;3.788;2023-10-19T00:33:36;17.70;99.90
27226;DHT22;14732;51.074;3.788;2023-10-19T00:36:06;17.90;99.90
27226;DHT22;14732;51.074;3.788;2023-10-19T00:38:39;17.90;99.90
27226;DHT22;14732;51.074;3.788;2023-10-19T00:41:06;17.80;99.90
27226;DHT22;14732;51.074;3.788;2023-10-19T00:43:39;17.90;99.90
27226;DHT22;14732;51.074;3.788;2023-10-19T00:46:15;17.90;99.90
27226;DHT22;14732;51.074;3.788;2023-10-19T00:48:47;18.00;99.90
27226;DHT22;14732;51.074;3.788;2023-10-19T00:51:16;17.80;99.90
27226;DHT22;14732;51.074;3.788;2023-10-19T00:54:00;17.70;99.90
27226;DHT22;14732;51.074;3.788;2023-10-19T00:56:29;17.70;99.90
27226;DHT22;14732;51.074;3.788;2023-10-19T00:58:59;17.90;99.90
27226;DHT22;14732;51.074;3.788;2023-10-19T01:01:41;17.90;99.90
27226;DHT22;14732;51.074;3.788;2023-10-19T01:04:11;17.90;99.90
27226;DHT22;14732;51.074;3.788;2023-10-19T01:06:42;17.70;99.90
27226;DHT22;14732;51.074;3.788;2023-10-19T01:09:24;17.70;99.90
27226;DHT22;14732;51.074;3.788;2023-10-19T01:11:53;17.70;99.90
27226;DHT22;14732;51.074;3.788;2023-10-19T01:14:22;17.70;99.90
27226;DHT22;14732;51.074;3.788;2023-10-19T01:16:53;17.70;99.90
27226;DHT22;14732;51.074;3.788;2023-10-19T01:19:22;17.70;99.90
27226;DHT22;14732;51.074;3.788;2023-10-19T01:21:48;17.80;99.90
27226;DHT22;14732;51.074;3.788;2023-10-19T01:24:19;17.80;99.90
27226;DHT22;14732;51.074;3.788;2023-10-19T01:26:49;17.80;99.90
27226;DHT22;14732;51.074;3.788;2023-10-19T01:29:15;17.80;99.90
27226;DHT22;14732;51.074;3.788;2023-10-19T01:31:43;17.60;99.90
27226;DHT22;14732;51.074;3.788;2023-10-19T01:34:22;17.50;99.90
27226;DHT22;14732;51.074;3.788;2023-10-19T01:36:48;17.60;99.90
27226;DHT22;14732;51.074;3.788;2023-10-19T01:39:17;17.60;99.90
27226;DHT22;14732;51.074;3.788;2023-10-19T01:41:45;17.50;99.90
27226;DHT22;14732;51.074;3.788;2023-10-19T01:44:11;17.60;99.90
27226;DHT22;14732;51.074;3.788;2023-10-19T01:46:41;17.70;99.90
27226;DHT22;14732;51.074;3.788;2023-10-19T01:49:09;17.80;99.90
27226;DHT22;14732;51.074;3.788;2023-10-19T01:51:35;17.70;99.90
27226;DHT22;14732;51.074;3.788;2023-10-19T01:54:05;17.50;99.90
27226;DHT22;14732;51.074;3.788;2023-10-19T01:56:32;17.60;99.90
27226;DHT22;14732;51.074;3.788;2023-10-19T01:59:04;17.60;99.90
27226;DHT22;14732;51.074;3.788;2023-10-19T02:01:30;17.60;99.90
27226;DHT22;14732;51.074;3.788;2023-10-19T02:04:03;17.60;99.90
27226;DHT22;14732;51.074;3.788;2023-10-19T02:06:33;17.50;99.90
27226;DHT22;14732;51.074;3.788;2023-10-19T02:09:03;17.70;99.90
27226;DHT22;14732;51.074;3.788;2023-10-19T02:11:45;17.50;99.90
27226;DHT22;14732;51.074;3.788;2023-10-19T02:14:11;17.40;99.90
27226;DHT22;14732;51.074;3.788;2023-10-19T02:16:44;17.30;99.90
27226;DHT22;14732;51.074;3.788;2023-10-19T02:19:12;17.40;99.90
27226;DHT22;14732;51.074;3.788;2023-10-19T02:21:38;17.40;99.90
27226;DHT22;14732;51.074;3.788;2023-10-19T02:24:07;17.40;99.90
27226;DHT22;14732;51.074;3.788;2023-10-19T02:26:33;17.20;99.90
27226;DHT22;14732;51.074;3.788;2023-10-19T02:28:59;17.20;99.90
27226;DHT22;14732;51.074;3.788;2023-10-19T02:31:25;17.30;99.90
27226;DHT22;14732;51.074;3.788;2023-10-19T02:33:53;17.30;99.90
27226;DHT22;14732;51.074;3.788;2023-10-19T02:36:26;17.30;99.90
27226;DHT22;14732;51.074;3.788;2023-10-19T02:38:55;17.30;99.90
27226;DHT22;14732;51.074;3.788;2023-10-19T02:41:24;17.30;99.90
27226;DHT22;14732;51.074;3.788;2023-10-19T02:43:52;17.40;99.90
27226;DHT22;14732;51.074;3.788;2023-10-19T02:46:55;17.40;99.90
27226;DHT22;14732;51.074;3.788;2023-10-19T02:49:25;17.40;99.90
27226;DHT22;14732;51.074;3.788;2023-10-19T02:51:55;17.40;99.90
27226;DHT22;14732;51.074;3.788;2023-10-19T02:54:23;17.40;99.90
27226;DHT22;14732;51.074;3.788;2023-10-19T02:56:54;17.30;99.90
27226;DHT22;14732;51.074;3.788;2023-10-19T02:59:25;17.20;99.90
27226;DHT22;14732;51.074;3.788;2023-10-19T03:01:52;17.40;99.90
27226;DHT22;14732;51.074;3.788;2023-10-19T03:04:26;17.30;99.90
27226;DHT22;14732;51.074;3.788;2023-10-19T03:06:53;17.30;99.90
27226;DHT22;14732;51.074;3.788;2023-10-19T03:09:21;17.40;99.90
27226;DHT22;14732;51.074;3.788;2023-10-19T03:11:53;17.40;99.90
27226;DHT22;14732;51.074;3.788;2023-10-19T03:14:21;17.40;99.90
27226;DHT22;14732;51.074;3.788;2023-10-19T03:16:50;17.50;99.90
27226;DHT22;14732;51.074;3.788;2023-10-19T03:19:16;17.50;99.90
27226;DHT22;14732;51.074;3.788;2023-10-19T03:21:41;17.60;99.90
27226;DHT22;14732;51.074;3.788;2023-10-19T03:24:14;17.50;99.90
27226;DHT22;14732;51.074;3.788;2023-10-19T03:26:59;17.40;99.90
27226;DHT22;14732;51.074;3.788;2023-10-19T03:29:25;17.40;99.90
27226;DHT22;14732;51.074;3.788;2023-10-19T03:31:57;17.50;99.90
27226;DHT22;14732;51.074;3.788;2023-10-19T03:34:24;17.40;99.90
27226;DHT22;14732;51.074;3.788;2023-10-19T03:36:50;17.40;99.90
27226;DHT22;14732;51.074;3.788;2023-10-19T03:39:20;17.50;99.90
27226;DHT22;14732;51.074;3.788;2023-10-19T03:41:46;17.60;99.90
27226;DHT22;14732;51.074;3.788;2023-10-19T03:44:13;17.60;99.90
27226;DHT22;14732;51.074;3.788;2023-10-19T03:46:50;17.50;99.90
27226;DHT22;14732;51.074;3.788;2023-10-19T03:49:21;17.50;99.90
27226;DHT22;14732;51.074;3.788;2023-10-19T03:51:48;17.50;99.90
27226;DHT22;14732;51.074;3.788;2023-10-19T03:54:27;17.40;99.90
27226;DHT22;14732;51.074;3.788;2023-10-19T03:56:54;17.30;99.90
27226;DHT22;14732;51.074;3.788;2023-10-19T03:59:22;17.40;99.90
27226;DHT22;14732;51.074;3.788;2023-10-19T04:01:48;17.40;99.90
27226;DHT22;14732;51.074;3.788;2023-10-19T04:04:14;17.40;99.90
27226;DHT22;14732;51.074;3.788;2023-10-19T04:06:41;17.40;99.90
27226;DHT22;14732;51.074;3.788;2023-10-19T04:09:13;17.40;99.90
27226;DHT22;14732;51.074;3.788;2023-10-19T04:11:42;17.40;99.90
27226;DHT22;14732;51.074;3.788;2023-10-19T04:14:17;17.20;99.90
27226;DHT22;14732;51.074;3.788;2023-10-19T04:16:43;17.20;99.90
27226;DHT22;14732;51.074;3.788;2023-10-19T04:19:13;17.10;99.90
27226;DHT22;14732;51.074;3.788;2023-10-19T04:21:42;17.20;99.90
27226;DHT22;14732;51.074;3.788;2023-10-19T04:24:13;17.30;99.90
27226;DHT22;14732;51.074;3.788;2023-10-19T04:26:39;17.40;99.90
27226;DHT22;14732;51.074;3.788;2023-10-19T04:29:07;17.30;99.90
27226;DHT22;14732;51.074;3.788;2023-10-19T04:31:39;17.30;99.90
27226;DHT22;14732;51.074;3.788;2023-10-19T04:34:16;17.20;99.90
27226;DHT22;14732;51.074;3.788;2023-10-19T04:36:45;17.20;99.90
27226;DHT22;14732;51.074;3.788;2023-10-19T04:39:12;17.40;99.90
27226;DHT22;14732;51.074;3.788;2023-10-19T04:41:39;17.40;99.90
27226;DHT22;14732;51.074;3.788;2023-10-19T04:44:05;17.40;99.90
27226;DHT22;14732;51.074;3.788;2023-10-19T04:46:33;17.50;99.90
27226;DHT22;14732;51.074;3.788;2023-10-19T04:48:59;17.50;99.90
27226;DHT22;14732;51.074;3.788;2023-10-19T04:51:25;17.60;99.90
27226;DHT22;14732;51.074;3.788;2023-10-19T04:53:51;17.60;99.90
27226;DHT22;14732;51.074;3.788;2023-10-19T04:56:16;17.60;99.90
27226;DHT22;14732;51.074;3.788;2023-10-19T04:58:42;17.60;99.90
27226;DHT22;14732;51.074;3.788;2023-10-19T05:01:07;17.40;99.90
27226;DHT22;14732;51.074;3.788;2023-10-19T05:03:36;17.30;99.90
27226;DHT22;14732;51.074;3.788;2023-10-19T05:06:02;17.20;99.90
27226;DHT22;14732;51.074;3.788;2023-10-19T05:08:28;17.20;99.90
27226;DHT22;14732;51.074;3.788;2023-10-19T05:10:55;17.30;99.90
27226;DHT22;14732;51.074;3.788;2023-10-19T05:13:25;17.50;99.90
27226;DHT22;14732;51.074;3.788;2023-10-19T05:15:52;17.50;99.90
27226;DHT22;14732;51.074;3.788;2023-10-19T05:18:19;17.40;99.90
27226;DHT22;14732;51.074;3.788;2023-10-19T05:20:45;17.30;99.90
27226;DHT22;14732;51.074;3.788;2023-10-19T05:23:11;17.20;99.90
27226;DHT22;14732;51.074;3.788;2023-10-19T05:25:39;17.10;99.90
27226;DHT22;14732;51.074;3.788;2023-10-19T05:28:05;16.80;99.90
27226;DHT22;14732;51.074;3.788;2023-10-19T05:30:31;17.00;99.90
27226;DHT22;14732;51.074;3.788;2023-10-19T05:32:58;17.20;99.90
27226;DHT22;14732;51.074;3.788;2023-10-19T05:35:25;17.40;99.90
27226;DHT22;14732;51.074;3.788;2023-10-19T05:37:55;17.40;99.90
27226;DHT22;14732;51.074;3.788;2023-10-19T05:40:24;17.40;99.90
27226;DHT22;14732;51.074;3.788;2023-10-19T05:42:56;17.20;99.90
27226;DHT22;14732;51.074;3.788;2023-10-19T05:45:22;17.30;99.90
27226;DHT22;14732;51.074;3.788;2023-10-19T05:47:48;17.40;99.90
27226;DHT22;14732;51.074;3.788;2023-10-19T05:50:13;17.40;99.90
27226;DHT22;14732;51.074;3.788;2023-10-19T05:52:43;17.40;99.90
27226;DHT22;14732;51.074;3.788;2023-10-19T05:55:12;17.20;99.90
27226;DHT22;14732;51.074;3.788;2023-10-19T05:57:38;17.30;99.90
27226;DHT22;14732;51.074;3.788;2023-10-19T06:00:09;17.30;99.90
27226;DHT22;14732;51.074;3.788;2023-10-19T06:02:41;17.30;99.90
27226;DHT22;14732;51.074;3.788;2023-10-19T06:05:09;17.40;99.90
27226;DHT22;14732;51.074;3.788;2023-10-19T06:07:35;17.40;99.90
27226;DHT22;14732;51.074;3.788;2023-10-19T06:10:00;17.30;99.90
27226;DHT22;14732;51.074;3.788;2023-10-19T06:12:30;17.30;99.90
27226;DHT22;14732;51.074;3.788;2023-10-19T06:14:56;17.20;99.90
27226;DHT22;14732;51.074;3.788;2023-10-19T06:17:22;17.20;99.90
27226;DHT22;14732;51.074;3.788;2023-10-19T06:19:49;17.10;99.90
27226;DHT22;14732;51.074;3.788;2023-10-19T06:22:14;17.10;99.90
27226;DHT22;14732;51.074;3.788;2023-10-19T06:24:42;16.90;99.90
27226;DHT22;14732;51.074;3.788;2023-10-19T06:27:11;16.90;99.90
27226;DHT22;14732;51.074;3.788;2023-10-19T06:29:37;17.00;99.90
27226;DHT22;14732;51.074;3.788;2023-10-19T06:32:04;16.80;99.90
27226;DHT22;14732;51.074;3.788;2023-10-19T06:34:30;16.80;99.90
27226;DHT22;14732;51.074;3.788;2023-10-19T06:36:55;16.70;99.90
27226;DHT22;14732;51.074;3.788;2023-10-19T06:39:21;16.60;99.90
27226;DHT22;14732;51.074;3.788;2023-10-19T06:41:47;16.70;99.90
27226;DHT22;14732;51.074;3.788;2023-10-19T06:44:13;16.60;99.90
27226;DHT22;14732;51.074;3.788;2023-10-19T06:46:39;16.80;99.90
27226;DHT22;14732;51.074;3.788;2023-10-19T06:49:05;16.80;99.90
27226;DHT22;14732;51.074;3.788;2023-10-19T06:51:31;17.00;99.90
27226;DHT22;14732;51.074;3.788;2023-10-19T06:53:58;17.00;99.90
27226;DHT22;14732;51.074;3.788;2023-10-19T06:56:24;17.00;99.90
27226;DHT22;14732;51.074;3.788;2023-10-19T06:58:50;16.90;99.90
27226;DHT22;14732;51.074;3.788;2023-10-19T07:01:16;16.90;99.90
27226;DHT22;14732;51.074;3.788;2023-10-19T07:03:48;16.90;99.90
27226;DHT22;14732;51.074;3.788;2023-10-19T07:06:14;17.10;99.90
27226;DHT22;14732;51.074;3.788;2023-10-19T07:08:40;17.20;99.90
27226;DHT22;14732;51.074;3.788;2023-10-19T07:11:09;17.20;99.90
27226;DHT22;14732;51.074;3.788;2023-10-19T07:13:35;17.40;99.90
27226;DHT22;14732;51.074;3.788;2023-10-19T07:16:01;17.50;99.90
27226;DHT22;14732;51.074;3.788;2023-10-19T07:18:29;17.60;99.90
27226;DHT22;14732;51.074;3.788;2023-10-19T07:53:08;17.20;99.90
27226;DHT22;14732;51.074;3.788;2023-10-19T07:55:35;17.10;99.90
27226;DHT22;14732;51.074;3.788;2023-10-19T07:58:01;17.00;99.90
27226;DHT22;14732;51.074;3.788;2023-10-19T08:00:29;17.10;99.90
27226;DHT22;14732;51.074;3.788;2023-10-19T08:02:59;17.20;99.90
27226;DHT22;14732;51.074;3.788;2023-10-19T08:05:25;17.30;99.90
27226;DHT22;14732;51.074;3.788;2023-10-19T08:07:51;17.30;99.90
27226;DHT22;14732;51.074;3.788;2023-10-19T08:10:19;17.20;99.90
27226;DHT22;14732;51.074;3.788;2023-10-19T08:12:46;17.20;99.90
27226;DHT22;14732;51.074;3.788;2023-10-19T08:15:16;17.50;99.90
27226;DHT22;14732;51.074;3.788;2023-10-19T08:17:44;17.40;99.90
27226;DHT22;14732;51.074;3.788;2023-10-19T08:20:12;17.70;99.90
27226;DHT22;14732;51.074;3.788;2023-10-19T08:22:53;17.90;99.90
27226;DHT22;14732;51.074;3.788;2023-10-19T08:25:19;18.70;99.90
27226;DHT22;14732;51.074;3.788;2023-10-19T08:27:46;19.80;99.90
27226;DHT22;14732;51.074;3.788;2023-10-19T08:30:19;19.50;99.90
27226;DHT22;14732;51.074;3.788;2023-10-19T08:32:46;19.40;99.90
27226;DHT22;14732;51.074;3.788;2023-10-19T08:35:20;20.20;99.90
27226;DHT22;14732;51.074;3.788;2023-10-19T08:37:46;21.20;99.90
27226;DHT22;14732;51.074;3.788;2023-10-19T08:40:13;21.50;99.90
27226;DHT22;14732;51.074;3.788;2023-10-19T08:42:44;21.50;99.90
27226;DHT22;14732;51.074;3.788;2023-10-19T08:45:11;22.20;99.90
27226;DHT22;14732;51.074;3.788;2023-10-19T08:50:14;22.40;99.90
27226;DHT22;14732;51.074;3.788;2023-10-19T08:52:41;21.40;99.90
27226;DHT22;14732;51.074;3.788;2023-10-19T08:55:08;21.00;99.90
27226;DHT22;14732;51.074;3.788;2023-10-19T08:57:37;21.20;99.90
27226;DHT22;14732;51.074;3.788;2023-10-19T09:00:04;22.30;99.90
27226;DHT22;14732;51.074;3.788;2023-10-19T09:02:32;23.00;99.90
27226;DHT22;14732;51.074;3.788;2023-10-19T09:04:58;22.70;99.90
27226;DHT22;14732;51.074;3.788;2023-10-19T09:07:25;22.10;99.90
27226;DHT22;14732;51.074;3.788;2023-10-19T09:09:56;21.40;99.90
27226;DHT22;14732;51.074;3.788;2023-10-19T09:12:22;21.20;99.90
27226;DHT22;14732;51.074;3.788;2023-10-19T09:14:48;20.80;99.90
27226;DHT22;14732;51.074;3.788;2023-10-19T09:17:15;20.40;99.90
27226;DHT22;14732;51.074;3.788;2023-10-19T09:19:45;19.90;99.90
27226;DHT22;14732;51.074;3.788;2023-10-19T09:22:14;19.50;99.90
27226;DHT22;14732;51.074;3.788;2023-10-19T09:24:54;19.30;99.90
27226;DHT22;14732;51.074;3.788;2023-10-19T09:27:21;19.40;99.90
27226;DHT22;14732;51.074;3.788;2023-10-19T09:29:50;19.20;99.90
27226;DHT22;14732;51.074;3.788;2023-10-19T09:32:18;18.70;99.90
27226;DHT22;14732;51.074;3.788;2023-10-19T09:34:45;18.80;99.90
27226;DHT22;14732;51.074;3.788;2023-10-19T09:37:14;18.70;99.90
27226;DHT22;14732;51.074;3.788;2023-10-19T09:39:41;18.90;99.90
27226;DHT22;14732;51.074;3.788;2023-10-19T09:42:10;19.10;99.90
27226;DHT22;14732;51.074;3.788;2023-10-19T09:44:47;19.00;99.90
27226;DHT22;14732;51.074;3.788;2023-10-19T09:47:27;19.00;99.90
27226;DHT22;14732;51.074;3.788;2023-10-19T09:49:57;18.90;99.90
27226;DHT22;14732;51.074;3.788;2023-10-19T09:52:23;18.90;99.90
27226;DHT22;14732;51.074;3.788;2023-10-19T09:55:12;18.80;99.90
27226;DHT22;14732;51.074;3.788;2023-10-19T09:57:55;18.60;99.90
27226;DHT22;14732;51.074;3.788;2023-10-19T10:00:22;18.50;99.90
27226;DHT22;14732;51.074;3.788;2023-10-19T10:02:53;18.30;99.90
27226;DHT22;14732;51.074;3.788;2023-10-19T10:15:53;18.70;99.90
27226;DHT22;14732;51.074;3.788;2023-10-19T10:18:33;18.80;99.90
27226;DHT22;14732;51.074;3.788;2023-10-19T10:21:19;18.40;99.90
27226;DHT22;14732;51.074;3.788;2023-10-19T10:23:56;18.50;99.90
27226;DHT22;14732;51.074;3.788;2023-10-19T10:26:28;18.50;99.90
27226;DHT22;14732;51.074;3.788;2023-10-19T10:29:09;18.20;99.90
27226;DHT22;14732;51.074;3.788;2023-10-19T10:31:40;18.40;99.90
27226;DHT22;14732;51.074;3.788;2023-10-19T10:34:08;18.30;99.90
27226;DHT22;14732;51.074;3.788;2023-10-19T10:37:00;18.20;99.90
27226;DHT22;14732;51.074;3.788;2023-10-19T10:39:28;18.60;99.90
27226;DHT22;14732;51.074;3.788;2023-10-19T10:41:59;18.50;99.90
27226;DHT22;14732;51.074;3.788;2023-10-19T10:47:26;18.00;99.90
27226;DHT22;14732;51.074;3.788;2023-10-19T10:49:56;18.00;99.90
27226;DHT22;14732;51.074;3.788;2023-10-19T10:52:33;18.20;99.90
27226;DHT22;14732;51.074;3.788;2023-10-19T10:55:09;18.20;99.90
27226;DHT22;14732;51.074;3.788;2023-10-19T10:57:40;18.30;99.90
27226;DHT22;14732;51.074;3.788;2023-10-19T11:00:08;18.40;99.90
27226;DHT22;14732;51.074;3.788;2023-10-19T11:02:38;18.40;99.90
27226;DHT22;14732;51.074;3.788;2023-10-19T11:05:08;18.60;99.90
27226;DHT22;14732;51.074;3.788;2023-10-19T11:07:40;18.70;99.90
27226;DHT22;14732;51.074;3.788;2023-10-19T11:10:06;18.70;99.90
27226;DHT22;14732;51.074;3.788;2023-10-19T11:12:32;18.40;99.90
27226;DHT22;14732;51.074;3.788;2023-10-19T11:14:59;18.40;99.90
27226;DHT22;14732;51.074;3.788;2023-10-19T11:17:28;18.50;99.90
27226;DHT22;14732;51.074;3.788;2023-10-19T11:19:58;18.70;99.90
27226;DHT22;14732;51.074;3.788;2023-10-19T11:22:25;18.90;99.90
27226;DHT22;14732;51.074;3.788;2023-10-19T11:24:54;19.30;99.90
27226;DHT22;14732;51.074;3.788;2023-10-19T11:27:27;19.30;99.90
27226;DHT22;14732;51.074;3.788;2023-10-19T11:30:00;19.10;99.90
27226;DHT22;14732;51.074;3.788;2023-10-19T11:32:37;19.20;99.90
27226;DHT22;14732;51.074;3.788;2023-10-19T11:35:04;19.60;99.90
27226;DHT22;14732;51.074;3.788;2023-10-19T11:37:30;19.10;99.90
27226;DHT22;14732;51.074;3.788;2023-10-19T11:39:55;19.00;99.90
27226;DHT22;14732;51.074;3.788;2023-10-19T11:42:21;19.40;99.90
27226;DHT22;14732;51.074;3.788;2023-10-19T11:44:46;19.50;99.90
27226;DHT22;14732;51.074;3.788;2023-10-19T11:47:12;19.20;99.90
27226;DHT22;14732;51.074;3.788;2023-10-19T11:49:41;19.30;99.90
27226;DHT22;14732;51.074;3.788;2023-10-19T11:52:07;19.40;99.90
27226;DHT22;14732;51.074;3.788;2023-10-19T11:54:35;19.40;99.90
27226;DHT22;14732;51.074;3.788;2023-10-19T11:57:02;19.50;99.90
27226;DHT22;14732;51.074;3.788;2023-10-19T11:59:27;19.20;99.90
27226;DHT22;14732;51.074;3.788;2023-10-19T12:01:53;19.20;99.90
27226;DHT22;14732;51.074;3.788;2023-10-19T12:04:20;19.20;99.90
27226;DHT22;14732;51.074;3.788;2023-10-19T12:06:45;19.30;99.90
27226;DHT22;14732;51.074;3.788;2023-10-19T12:09:11;19.60;99.90
27226;DHT22;14732;51.074;3.788;2023-10-19T12:11:44;19.80;99.90
27226;DHT22;14732;51.074;3.788;2023-10-19T12:14:10;20.00;99.90
27226;DHT22;14732;51.074;3.788;2023-10-19T12:16:40;19.70;99.90
27226;DHT22;14732;51.074;3.788;2023-10-19T12:19:06;19.90;99.90
27226;DHT22;14732;51.074;3.788;2023-10-19T12:21:35;19.70;99.90
27226;DHT22;14732;51.074;3.788;2023-10-19T12:24:03;19.60;99.90
27226;DHT22;14732;51.074;3.788;2023-10-19T12:26:30;19.70;99.90
27226;DHT22;14732;51.074;3.788;2023-10-19T12:28:56;19.60;99.90
27226;DHT22;14732;51.074;3.788;2023-10-19T12:31:22;19.60;99.90
27226;DHT22;14732;51.074;3.788;2023-10-19T12:33:48;19.50;99.90
27226;DHT22;14732;51.074;3.788;2023-10-19T12:36:14;19.60;99.90
27226;DHT22;14732;51.074;3.788;2023-10-19T12:38:58;19.70;99.90
27226;DHT22;14732;51.074;3.788;2023-10-19T12:41:24;19.90;99.90
27226;DHT22;14732;51.074;3.788;2023-10-19T12:43:50;19.80;99.90
27226;DHT22;14732;51.074;3.788;2023-10-19T12:46:23;19.90;99.90
27226;DHT22;14732;51.074;3.788;2023-10-19T12:48:55;19.90;99.90
27226;DHT22;14732;51.074;3.788;2023-10-19T12:51:24;19.90;99.90
27226;DHT22;14732;51.074;3.788;2023-10-19T12:53:54;19.80;99.90
27226;DHT22;14732;51.074;3.788;2023-10-19T12:56:23;20.00;99.90
27226;DHT22;14732;51.074;3.788;2023-10-19T12:58:49;19.80;99.90
27226;DHT22;14732;51.074;3.788;2023-10-19T13:01:15;19.90;99.90
27226;DHT22;14732;51.074;3.788;2023-10-19T13:03:48;19.70;99.90
27226;DHT22;14732;51.074;3.788;2023-10-19T13:06:17;19.70;99.90
27226;DHT22;14732;51.074;3.788;2023-10-19T13:08:43;19.70;99.90
27226;DHT22;14732;51.074;3.788;2023-10-19T13:11:09;19.90;99.90
27226;DHT22;14732;51.074;3.788;2023-10-19T13:13:41;20.00;99.90
27226;DHT22;14732;51.074;3.788;2023-10-19T13:16:06;20.50;99.90
27226;DHT22;14732;51.074;3.788;2023-10-19T13:18:35;20.40;99.90
27226;DHT22;14732;51.074;3.788;2023-10-19T13:21:01;20.50;99.90
27226;DHT22;14732;51.074;3.788;2023-10-19T13:23:37;20.90;99.90
27226;DHT22;14732;51.074;3.788;2023-10-19T13:26:02;20.80;99.90
27226;DHT22;14732;51.074;3.788;2023-10-19T13:28:40;20.80;99.90
27226;DHT22;14732;51.074;3.788;2023-10-19T13:31:07;21.10;99.90
27226;DHT22;14732;51.074;3.788;2023-10-19T13:33:35;21.00;99.90
27226;DHT22;14732;51.074;3.788;2023-10-19T13:36:01;20.50;99.90
27226;DHT22;14732;51.074;3.788;2023-10-19T13:38:27;20.60;99.90
27226;DHT22;14732;51.074;3.788;2023-10-19T13:40:54;20.70;99.90
27226;DHT22;14732;51.074;3.788;2023-10-19T13:43:20;20.70;99.90
27226;DHT22;14732;51.074;3.788;2023-10-19T13:45:47;20.80;99.90
27226;DHT22;14732;51.074;3.788;2023-10-19T13:48:14;21.00;99.90
27226;DHT22;14732;51.074;3.788;2023-10-19T13:50:45;21.00;99.90
27226;DHT22;14732;51.074;3.788;2023-10-19T13:53:13;21.10;99.90
27226;DHT22;14732;51.074;3.788;2023-10-19T13:55:39;20.90;99.90
27226;DHT22;14732;51.074;3.788;2023-10-19T13:58:05;20.80;99.90
27226;DHT22;14732;51.074;3.788;2023-10-19T14:00:32;20.80;99.90
27226;DHT22;14732;51.074;3.788;2023-10-19T14:03:06;20.80;99.90
27226;DHT22;14732;51.074;3.788;2023-10-19T14:05:42;20.80;99.90
27226;DHT22;14732;51.074;3.788;2023-10-19T14:08:09;20.80;99.90
27226;DHT22;14732;51.074;3.788;2023-10-19T14:10:35;20.80;99.90
27226;DHT22;14732;51.074;3.788;2023-10-19T14:13:02;20.80;99.90
27226;DHT22;14732;51.074;3.788;2023-10-19T14:15:28;21.10;99.90
27226;DHT22;14732;51.074;3.788;2023-10-19T14:17:56;20.80;99.90
27226;DHT22;14732;51.074;3.788;2023-10-19T14:20:24;20.40;99.90
27226;DHT22;14732;51.074;3.788;2023-10-19T14:22:50;20.50;99.90
27226;DHT22;14732;51.074;3.788;2023-10-19T14:25:16;20.40;99.90
27226;DHT22;14732;51.074;3.788;2023-10-19T14:27:46;20.50;99.90
27226;DHT22;14732;51.074;3.788;2023-10-19T14:30:18;20.30;99.90
27226;DHT22;14732;51.074;3.788;2023-10-19T14:32:47;20.30;99.90
27226;DHT22;14732;51.074;3.788;2023-10-19T14:35:21;20.40;99.90
27226;DHT22;14732;51.074;3.788;2023-10-19T14:37:52;20.40;99.90
27226;DHT22;14732;51.074;3.788;2023-10-19T14:40:23;20.60;99.90
27226;DHT22;14732;51.074;3.788;2023-10-19T14:42:53;20.60;99.90
27226;DHT22;14732;51.074;3.788;2023-10-19T14:45:20;20.40;99.90
27226;DHT22;14732;51.074;3.788;2023-10-19T14:47:50;20.40;99.90
27226;DHT22;14732;51.074;3.788;2023-10-19T14:50:20;20.30;99.90
27226;DHT22;14732;51.074;3.788;2023-10-19T14:52:48;20.40;99.90
27226;DHT22;14732;51.074;3.788;2023-10-19T14:55:14;20.60;99.90
27226;DHT22;14732;51.074;3.788;2023-10-19T14:57:46;20.80;99.90
27226;DHT22;14732;51.074;3.788;2023-10-19T15:00:16;20.80;99.90
27226;DHT22;14732;51.074;3.788;2023-10-19T15:02:49;20.50;99.90
27226;DHT22;14732;51.074;3.788;2023-10-19T15:05:23;20.40;99.90
27226;DHT22;14732;51.074;3.788;2023-10-19T15:07:51;20.50;99.90
27226;DHT22;14732;51.074;3.788;2023-10-19T15:10:26;20.50;99.90
27226;DHT22;14732;51.074;3.788;2023-10-19T15:12:53;20.40;99.90
27226;DHT22;14732;51.074;3.788;2023-10-19T15:15:19;20.40;99.90
27226;DHT22;14732;51.074;3.788;2023-10-19T15:17:47;20.30;99.90
27226;DHT22;14732;51.074;3.788;2023-10-19T15:20:14;20.20;99.90
27226;DHT22;14732;51.074;3.788;2023-10-19T15:22:41;20.20;99.90
27226;DHT22;14732;51.074;3.788;2023-10-19T15:25:07;20.40;99.90
27226;DHT22;14732;51.074;3.788;2023-10-19T15:27:36;20.50;99.90
27226;DHT22;14732;51.074;3.788;2023-10-19T15:30:03;20.40;99.90
27226;DHT22;14732;51.074;3.788;2023-10-19T15:32:31;20.30;99.90
27226;DHT22;14732;51.074;3.788;2023-10-19T15:34:57;20.40;99.90
27226;DHT22;14732;51.074;3.788;2023-10-19T15:37:23;20.10;99.90
27226;DHT22;14732;51.074;3.788;2023-10-19T15:39:52;20.00;99.90
27226;DHT22;14732;51.074;3.788;2023-10-19T15:42:18;19.90;99.90
27226;DHT22;14732;51.074;3.788;2023-10-19T15:44:44;19.90;99.90
27226;DHT22;14732;51.074;3.788;2023-10-19T15:47:11;19.70;99.90
27226;DHT22;14732;51.074;3.788;2023-10-19T15:49:48;19.80;99.90
27226;DHT22;14732;51.074;3.788;2023-10-19T15:52:18;20.00;99.90
27226;DHT22;14732;51.074;3.788;2023-10-19T15:54:45;20.00;99.90
27226;DHT22;14732;51.074;3.788;2023-10-19T15:57:10;20.00;99.90
27226;DHT22;14732;51.074;3.788;2023-10-19T15:59:36;19.90;99.90
27226;DHT22;14732;51.074;3.788;2023-10-19T16:02:02;19.90;99.90
27226;DHT22;14732;51.074;3.788;2023-10-19T16:04:28;19.90;99.90
27226;DHT22;14732;51.074;3.788;2023-10-19T16:06:53;19.90;99.90
27226;DHT22;14732;51.074;3.788;2023-10-19T16:09:19;19.90;99.90
27226;DHT22;14732;51.074;3.788;2023-10-19T16:11:46;19.70;99.90
27226;DHT22;14732;51.074;3.788;2023-10-19T16:14:14;19.50;99.90
27226;DHT22;14732;51.074;3.788;2023-10-19T16:16:45;19.50;99.90
27226;DHT22;14732;51.074;3.788;2023-10-19T16:19:12;19.40;99.90
27226;DHT22;14732;51.074;3.788;2023-10-19T16:21:37;19.50;99.90
27226;DHT22;14732;51.074;3.788;2023-10-19T16:24:06;19.40;99.90
27226;DHT22;14732;51.074;3.788;2023-10-19T16:26:31;19.40;99.90
27226;DHT22;14732;51.074;3.788;2023-10-19T16:28:57;19.40;99.90